sensor_id;sensor_type;location;lat;lon;timestamp;pressure;altitude;pressure_sealevel;temperature;humidity
32492;BME280;20605;49.742;18.802;2023-01-29T00:01:51;98628.12;;;-1.21;100.00
32492;BME280;20605;49.742;18.802;2023-01-29T00:04:17;98629.08;;;-1.23;100.00
32492;BME280;20605;49.742;18.802;2023-01-29T00:06:43;98626.68;;;-1.31;100.00
32492;BME280;20605;49.742;18.802;2023-01-29T00:09:10;98629.80;;;-1.41;100.00
32492;BME280;20605;49.742;18.802;2023-01-29T00:11:36;98632.73;;;-1.52;100.00
32492;BME280;20605;49.742;18.802;2023-01-29T00:14:02;98633.23;;;-1.64;100.00
32492;BME280;20605;49.742;18.802;2023-01-29T00:16:28;98640.01;;;-1.76;100.00
32492;BME280;20605;49.742;18.802;2023-01-29T00:18:54;98639.61;;;-1.83;100.00
32492;BME280;20605;49.742;18.802;2023-01-29T00:21:21;98636.02;;;-1.90;100.00
32492;BME280;20605;49.742;18.802;2023-01-29T00:23:48;98637.66;;;-1.97;100.00
32492;BME280;20605;49.742;18.802;2023-01-29T00:26:14;98641.64;;;-2.01;100.00
32492;BME280;20605;49.742;18.802;2023-01-29T00:28:42;98638.48;;;-2.04;100.00
32492;BME280;20605;49.742;18.802;2023-01-29T00:31:14;98642.73;;;-2.09;100.00
32492;BME280;20605;49.742;18.802;2023-01-29T00:33:42;98645.23;;;-2.16;100.00
32492;BME280;20605;49.742;18.802;2023-01-29T00:36:12;98647.52;;;-2.18;100.00
32492;BME280;20605;49.742;18.802;2023-01-29T00:38:38;98650.45;;;-2.18;100.00
32492;BME280;20605;49.742;18.802;2023-01-29T00:41:08;98653.23;;;-2.21;100.00
32492;BME280;20605;49.742;18.802;2023-01-29T00:43:53;98650.27;;;-2.23;100.00
32492;BME280;20605;49.742;18.802;2023-01-29T00:46:37;98653.11;;;-2.25;100.00
32492;BME280;20605;49.742;18.802;2023-01-29T00:49:03;98661.76;;;-2.26;100.00
32492;BME280;20605;49.742;18.802;2023-01-29T00:51:29;98662.85;;;-2.28;100.00
32492;BME280;20605;49.742;18.802;2023-01-29T00:53:55;98666.48;;;-2.32;100.00
32492;BME280;20605;49.742;18.802;2023-01-29T00:56:24;98664.36;;;-2.35;100.00
32492;BME280;20605;49.742;18.802;2023-01-29T00:58:50;98668.10;;;-2.40;100.00
32492;BME280;20605;49.742;18.802;2023-01-29T01:01:16;98672.65;;;-2.41;100.00
32492;BME280;20605;49.742;18.802;2023-01-29T01:03:41;98670.48;;;-2.40;100.00
32492;BME280;20605;49.742;18.802;2023-01-29T01:06:09;98678.53;;;-2.38;100.00
32492;BME280;20605;49.742;18.802;2023-01-29T01:08:35;98683.50;;;-2.37;100.00
32492;BME280;20605;49.742;18.802;2023-01-29T01:11:20;98678.88;;;-2.38;100.00
32492;BME280;20605;49.742;18.802;2023-01-29T01:13:45;98676.84;;;-2.38;100.00
32492;BME280;20605;49.742;18.802;2023-01-29T01:16:14;98675.77;;;-2.39;100.00
32492;BME280;20605;49.742;18.802;2023-01-29T01:18:41;98676.60;;;-2.40;100.00
32492;BME280;20605;49.742;18.802;2023-01-29T01:21:07;98685.93;;;-2.41;100.00
32492;BME280;20605;49.742;18.802;2023-01-29T01:23:33;98681.20;;;-2.45;100.00
32492;BME280;20605;49.742;18.802;2023-01-29T01:25:59;98681.66;;;-2.46;100.00
32492;BME280;20605;49.742;18.802;2023-01-29T01:28:26;98680.66;;;-2.45;100.00
32492;BME280;20605;49.742;18.802;2023-01-29T01:30:52;98683.67;;;-2.47;100.00
32492;BME280;20605;49.742;18.802;2023-01-29T01:33:19;98684.55;;;-2.51;100.00
32492;BME280;20605;49.742;18.802;2023-01-29T01:35:45;98685.49;;;-2.53;100.00
32492;BME280;20605;49.742;18.802;2023-01-29T01:38:10;98677.57;;;-2.52;100.00
32492;BME280;20605;49.742;18.802;2023-01-29T01:40:36;98681.08;;;-2.53;100.00
32492;BME280;20605;49.742;18.802;2023-01-29T01:43:08;98683.73;;;-2.55;100.00
32492;BME280;20605;49.742;18.802;2023-01-29T01:45:35;98686.88;;;-2.58;100.00
32492;BME280;20605;49.742;18.802;2023-01-29T01:48:18;98689.20;;;-2.54;100.00
32492;BME280;20605;49.742;18.802;2023-01-29T01:50:52;98693.00;;;-2.58;100.00
32492;BME280;20605;49.742;18.802;2023-01-29T01:53:25;98696.18;;;-2.59;100.00
32492;BME280;20605;49.742;18.802;2023-01-29T01:56:01;98693.79;;;-2.60;100.00
32492;BME280;20605;49.742;18.802;2023-01-29T01:58:35;98696.77;;;-2.63;100.00
32492;BME280;20605;49.742;18.802;2023-01-29T02:01:03;98697.89;;;-2.65;100.00
32492;BME280;20605;49.742;18.802;2023-01-29T02:03:37;98696.48;;;-2.66;100.00
32492;BME280;20605;49.742;18.802;2023-01-29T02:06:23;98686.52;;;-2.69;100.00
32492;BME280;20605;49.742;18.802;2023-01-29T02:09:12;98691.81;;;-2.73;100.00
32492;BME280;20605;49.742;18.802;2023-01-29T02:11:56;98689.89;;;-2.75;100.00
32492;BME280;20605;49.742;18.802;2023-01-29T02:14:23;98692.51;;;-2.73;100.00
32492;BME280;20605;49.742;18.802;2023-01-29T02:16:50;98691.33;;;-2.73;100.00
32492;BME280;20605;49.742;18.802;2023-01-29T02:19:31;98685.79;;;-2.75;100.00
32492;BME280;20605;49.742;18.802;2023-01-29T02:28:04;98668.66;;;-2.84;100.00
32492;BME280;20605;49.742;18.802;2023-01-29T02:30:39;98663.30;;;-2.82;100.00
32492;BME280;20605;49.742;18.802;2023-01-29T02:36:08;98652.59;;;-2.72;100.00
32492;BME280;20605;49.742;18.802;2023-01-29T02:47:11;98648.02;;;-2.71;100.00
32492;BME280;20605;49.742;18.802;2023-01-29T02:49:58;98647.52;;;-2.71;100.00
32492;BME280;20605;49.742;18.802;2023-01-29T02:52:38;98653.17;;;-2.70;100.00
32492;BME280;20605;49.742;18.802;2023-01-29T02:55:12;98655.49;;;-2.67;100.00
32492;BME280;20605;49.742;18.802;2023-01-29T02:57:43;98649.73;;;-2.67;100.00
32492;BME280;20605;49.742;18.802;2023-01-29T03:00:21;98653.44;;;-2.67;100.00
32492;BME280;20605;49.742;18.802;2023-01-29T03:08:11;98652.70;;;-2.53;100.00
32492;BME280;20605;49.742;18.802;2023-01-29T03:10:49;98657.00;;;-2.51;100.00
32492;BME280;20605;49.742;18.802;2023-01-29T03:13:24;98656.66;;;-2.46;100.00
32492;BME280;20605;49.742;18.802;2023-01-29T03:16:01;98660.75;;;-2.41;100.00
32492;BME280;20605;49.742;18.802;2023-01-29T03:18:44;98668.08;;;-2.45;100.00
32492;BME280;20605;49.742;18.802;2023-01-29T03:21:24;98668.66;;;-2.48;100.00
32492;BME280;20605;49.742;18.802;2023-01-29T03:24:11;98671.30;;;-2.56;100.00
32492;BME280;20605;49.742;18.802;2023-01-29T03:27:01;98677.92;;;-2.62;100.00
32492;BME280;20605;49.742;18.802;2023-01-29T03:29:48;98687.13;;;-2.66;100.00
32492;BME280;20605;49.742;18.802;2023-01-29T03:32:47;98694.16;;;-2.74;100.00
32492;BME280;20605;49.742;18.802;2023-01-29T03:35:20;98693.12;;;-2.80;100.00
32492;BME280;20605;49.742;18.802;2023-01-29T03:37:58;98691.15;;;-2.82;100.00
32492;BME280;20605;49.742;18.802;2023-01-29T03:40:27;98690.69;;;-2.86;100.00
32492;BME280;20605;49.742;18.802;2023-01-29T03:45:49;98697.42;;;-2.92;100.00
32492;BME280;20605;49.742;18.802;2023-01-29T03:48:44;98698.80;;;-2.92;100.00
32492;BME280;20605;49.742;18.802;2023-01-29T03:51:31;98698.45;;;-2.97;100.00
32492;BME280;20605;49.742;18.802;2023-01-29T03:54:17;98702.16;;;-2.98;100.00
32492;BME280;20605;49.742;18.802;2023-01-29T04:02:34;98692.99;;;-2.98;100.00
32492;BME280;20605;49.742;18.802;2023-01-29T04:05:10;98696.15;;;-2.90;100.00
32492;BME280;20605;49.742;18.802;2023-01-29T04:07:52;98692.27;;;-2.84;100.00
32492;BME280;20605;49.742;18.802;2023-01-29T04:10:21;98687.73;;;-2.83;100.00
32492;BME280;20605;49.742;18.802;2023-01-29T04:13:00;98681.63;;;-2.87;100.00
32492;BME280;20605;49.742;18.802;2023-01-29T04:15:29;98682.58;;;-2.94;100.00
32492;BME280;20605;49.742;18.802;2023-01-29T04:17:56;98676.83;;;-2.99;100.00
32492;BME280;20605;49.742;18.802;2023-01-29T04:20:31;98671.38;;;-3.04;100.00
32492;BME280;20605;49.742;18.802;2023-01-29T04:22:57;98668.14;;;-3.08;100.00
32492;BME280;20605;49.742;18.802;2023-01-29T04:25:27;98658.37;;;-3.11;100.00
32492;BME280;20605;49.742;18.802;2023-01-29T04:28:09;98657.27;;;-3.09;100.00
32492;BME280;20605;49.742;18.802;2023-01-29T04:30:52;98657.40;;;-3.05;100.00
32492;BME280;20605;49.742;18.802;2023-01-29T04:33:48;98661.30;;;-3.05;100.00
32492;BME280;20605;49.742;18.802;2023-01-29T04:39:21;98666.15;;;-2.98;100.00
32492;BME280;20605;49.742;18.802;2023-01-29T04:44:46;98656.45;;;-2.93;100.00
32492;BME280;20605;49.742;18.802;2023-01-29T04:47:27;98647.41;;;-2.89;100.00
32492;BME280;20605;49.742;18.802;2023-01-29T04:55:31;98635.26;;;-2.82;100.00
32492;BME280;20605;49.742;18.802;2023-01-29T04:58:35;98634.64;;;-2.80;100.00
32492;BME280;20605;49.742;18.802;2023-01-29T05:00:53;98625.18;;;-2.78;100.00
32492;BME280;20605;49.742;18.802;2023-01-29T05:03:22;98628.20;;;-2.80;100.00
32492;BME280;20605;49.742;18.802;2023-01-29T05:05:50;98621.70;;;-2.81;100.00
32492;BME280;20605;49.742;18.802;2023-01-29T05:08:18;98608.38;;;-2.78;100.00
32492;BME280;20605;49.742;18.802;2023-01-29T05:10:47;98604.87;;;-2.76;100.00
32492;BME280;20605;49.742;18.802;2023-01-29T05:13:14;98608.69;;;-2.74;100.00
32492;BME280;20605;49.742;18.802;2023-01-29T05:16:07;98604.49;;;-2.72;100.00
32492;BME280;20605;49.742;18.802;2023-01-29T05:18:34;98590.42;;;-2.71;100.00
32492;BME280;20605;49.742;18.802;2023-01-29T05:21:04;98586.92;;;-2.69;100.00
32492;BME280;20605;49.742;18.802;2023-01-29T05:23:30;98586.34;;;-2.66;100.00
32492;BME280;20605;49.742;18.802;2023-01-29T05:25:56;98589.83;;;-2.57;100.00
32492;BME280;20605;49.742;18.802;2023-01-29T05:28:22;98588.83;;;-2.51;100.00
32492;BME280;20605;49.742;18.802;2023-01-29T05:30:51;98589.16;;;-2.41;100.00
32492;BME280;20605;49.742;18.802;2023-01-29T05:33:18;98595.65;;;-2.35;100.00
32492;BME280;20605;49.742;18.802;2023-01-29T05:35:45;98598.11;;;-2.32;100.00
32492;BME280;20605;49.742;18.802;2023-01-29T05:38:10;98603.78;;;-2.31;100.00
32492;BME280;20605;49.742;18.802;2023-01-29T05:40:36;98606.59;;;-2.33;100.00
32492;BME280;20605;49.742;18.802;2023-01-29T05:43:03;98607.10;;;-2.33;100.00
32492;BME280;20605;49.742;18.802;2023-01-29T05:45:29;98610.55;;;-2.37;100.00
32492;BME280;20605;49.742;18.802;2023-01-29T05:47:58;98612.56;;;-2.43;100.00
32492;BME280;20605;49.742;18.802;2023-01-29T05:50:25;98620.02;;;-2.49;100.00
32492;BME280;20605;49.742;18.802;2023-01-29T05:52:59;98623.60;;;-2.54;100.00
32492;BME280;20605;49.742;18.802;2023-01-29T05:55:25;98622.45;;;-2.57;100.00
32492;BME280;20605;49.742;18.802;2023-01-29T05:57:51;98624.34;;;-2.57;100.00
32492;BME280;20605;49.742;18.802;2023-01-29T06:00:17;98624.23;;;-2.61;100.00
32492;BME280;20605;49.742;18.802;2023-01-29T06:02:43;98629.09;;;-2.63;100.00
32492;BME280;20605;49.742;18.802;2023-01-29T06:05:09;98627.63;;;-2.67;100.00
32492;BME280;20605;49.742;18.802;2023-01-29T06:07:35;98624.25;;;-2.71;100.00
32492;BME280;20605;49.742;18.802;2023-01-29T06:10:01;98620.92;;;-2.69;100.00
32492;BME280;20605;49.742;18.802;2023-01-29T06:12:27;98622.63;;;-2.63;100.00
32492;BME280;20605;49.742;18.802;2023-01-29T06:14:56;98623.75;;;-2.60;100.00
32492;BME280;20605;49.742;18.802;2023-01-29T06:17:29;98629.30;;;-2.56;100.00
32492;BME280;20605;49.742;18.802;2023-01-29T06:19:55;98625.95;;;-2.54;100.00
32492;BME280;20605;49.742;18.802;2023-01-29T06:22:21;98632.95;;;-2.54;100.00
32492;BME280;20605;49.742;18.802;2023-01-29T06:24:47;98638.68;;;-2.55;100.00
32492;BME280;20605;49.742;18.802;2023-01-29T06:27:12;98642.01;;;-2.57;100.00
32492;BME280;20605;49.742;18.802;2023-01-29T06:29:38;98646.10;;;-2.57;100.00
32492;BME280;20605;49.742;18.802;2023-01-29T06:32:04;98645.66;;;-2.61;100.00
32492;BME280;20605;49.742;18.802;2023-01-29T06:34:30;98642.85;;;-2.64;100.00
32492;BME280;20605;49.742;18.802;2023-01-29T06:36:56;98642.42;;;-2.66;100.00
32492;BME280;20605;49.742;18.802;2023-01-29T06:39:22;98640.55;;;-2.72;100.00
32492;BME280;20605;49.742;18.802;2023-01-29T06:41:47;98640.77;;;-2.75;100.00
32492;BME280;20605;49.742;18.802;2023-01-29T06:44:13;98646.13;;;-2.78;100.00
32492;BME280;20605;49.742;18.802;2023-01-29T06:46:39;98649.18;;;-2.82;100.00
32492;BME280;20605;49.742;18.802;2023-01-29T06:49:05;98653.90;;;-2.88;100.00
32492;BME280;20605;49.742;18.802;2023-01-29T06:51:31;98657.21;;;-2.90;100.00
32492;BME280;20605;49.742;18.802;2023-01-29T06:53:57;98658.98;;;-2.88;100.00
32492;BME280;20605;49.742;18.802;2023-01-29T06:56:23;98658.27;;;-2.85;100.00
32492;BME280;20605;49.742;18.802;2023-01-29T06:58:49;98658.81;;;-2.79;100.00
32492;BME280;20605;49.742;18.802;2023-01-29T07:01:15;98658.66;;;-2.68;100.00
32492;BME280;20605;49.742;18.802;2023-01-29T07:03:41;98657.61;;;-2.58;100.00
32492;BME280;20605;49.742;18.802;2023-01-29T07:06:08;98656.40;;;-2.54;100.00
32492;BME280;20605;49.742;18.802;2023-01-29T07:08:38;98657.09;;;-2.49;100.00
32492;BME280;20605;49.742;18.802;2023-01-29T07:11:05;98657.43;;;-2.49;100.00
32492;BME280;20605;49.742;18.802;2023-01-29T07:13:31;98658.41;;;-2.50;100.00
32492;BME280;20605;49.742;18.802;2023-01-29T07:16:01;98662.60;;;-2.52;100.00
32492;BME280;20605;49.742;18.802;2023-01-29T07:18:27;98660.61;;;-2.50;100.00
32492;BME280;20605;49.742;18.802;2023-01-29T07:20:54;98662.89;;;-2.48;100.00
32492;BME280;20605;49.742;18.802;2023-01-29T07:23:20;98662.63;;;-2.46;100.00
32492;BME280;20605;49.742;18.802;2023-01-29T07:25:46;98666.91;;;-2.40;100.00
32492;BME280;20605;49.742;18.802;2023-01-29T07:28:17;98669.98;;;-2.39;100.00
32492;BME280;20605;49.742;18.802;2023-01-29T07:30:43;98671.64;;;-2.41;100.00
32492;BME280;20605;49.742;18.802;2023-01-29T07:33:10;98670.61;;;-2.46;100.00
32492;BME280;20605;49.742;18.802;2023-01-29T07:35:59;98665.81;;;-2.42;100.00
32492;BME280;20605;49.742;18.802;2023-01-29T07:38:26;98665.98;;;-2.37;100.00
32492;BME280;20605;49.742;18.802;2023-01-29T07:40:52;98664.48;;;-2.36;100.00
32492;BME280;20605;49.742;18.802;2023-01-29T07:43:18;98668.48;;;-2.34;100.00
32492;BME280;20605;49.742;18.802;2023-01-29T07:45:44;98666.79;;;-2.28;100.00
32492;BME280;20605;49.742;18.802;2023-01-29T07:48:11;98666.73;;;-2.24;100.00
32492;BME280;20605;49.742;18.802;2023-01-29T07:50:37;98668.64;;;-2.23;100.00
32492;BME280;20605;49.742;18.802;2023-01-29T07:53:03;98668.98;;;-2.18;100.00
32492;BME280;20605;49.742;18.802;2023-01-29T07:55:29;98672.95;;;-2.11;100.00
32492;BME280;20605;49.742;18.802;2023-01-29T07:57:56;98673.86;;;-2.04;100.00
32492;BME280;20605;49.742;18.802;2023-01-29T08:00:22;98673.56;;;-1.97;100.00
32492;BME280;20605;49.742;18.802;2023-01-29T08:02:49;98675.23;;;-1.92;100.00
32492;BME280;20605;49.742;18.802;2023-01-29T08:05:14;98680.52;;;-1.92;100.00
32492;BME280;20605;49.742;18.802;2023-01-29T08:07:40;98683.52;;;-1.89;100.00
32492;BME280;20605;49.742;18.802;2023-01-29T08:10:06;98681.77;;;-1.85;100.00
32492;BME280;20605;49.742;18.802;2023-01-29T08:12:32;98679.52;;;-1.81;100.00
32492;BME280;20605;49.742;18.802;2023-01-29T08:14:58;98676.70;;;-1.73;100.00
32492;BME280;20605;49.742;18.802;2023-01-29T08:17:27;98679.68;;;-1.76;100.00
32492;BME280;20605;49.742;18.802;2023-01-29T08:19:53;98684.39;;;-1.78;100.00
32492;BME280;20605;49.742;18.802;2023-01-29T08:22:19;98686.06;;;-1.74;100.00
32492;BME280;20605;49.742;18.802;2023-01-29T08:24:44;98690.68;;;-1.73;100.00
32492;BME280;20605;49.742;18.802;2023-01-29T08:27:10;98695.55;;;-1.75;100.00
32492;BME280;20605;49.742;18.802;2023-01-29T08:29:36;98702.73;;;-1.74;100.00
32492;BME280;20605;49.742;18.802;2023-01-29T08:32:02;98712.93;;;-1.69;100.00
32492;BME280;20605;49.742;18.802;2023-01-29T08:34:27;98719.98;;;-1.66;100.00
32492;BME280;20605;49.742;18.802;2023-01-29T08:36:53;98718.16;;;-1.59;100.00
32492;BME280;20605;49.742;18.802;2023-01-29T08:39:19;98720.73;;;-1.53;100.00
32492;BME280;20605;49.742;18.802;2023-01-29T08:41:45;98718.04;;;-1.47;100.00
32492;BME280;20605;49.742;18.802;2023-01-29T08:44:10;98714.68;;;-1.39;100.00
32492;BME280;20605;49.742;18.802;2023-01-29T08:46:36;98711.95;;;-1.27;100.00
32492;BME280;20605;49.742;18.802;2023-01-29T08:49:05;98712.80;;;-1.10;100.00
32492;BME280;20605;49.742;18.802;2023-01-29T08:51:31;98711.89;;;-1.00;100.00
32492;BME280;20605;49.742;18.802;2023-01-29T08:53:57;98716.27;;;-0.90;100.00
32492;BME280;20605;49.742;18.802;2023-01-29T08:56:23;98712.82;;;-0.73;100.00
32492;BME280;20605;49.742;18.802;2023-01-29T08:58:49;98708.05;;;-0.60;100.00
32492;BME280;20605;49.742;18.802;2023-01-29T09:01:15;98708.52;;;-0.29;100.00
32492;BME280;20605;49.742;18.802;2023-01-29T09:03:41;98707.94;;;0.25;100.00
32492;BME280;20605;49.742;18.802;2023-01-29T09:06:13;98705.13;;;0.74;100.00
32492;BME280;20605;49.742;18.802;2023-01-29T09:08:39;98709.56;;;1.06;100.00
32492;BME280;20605;49.742;18.802;2023-01-29T09:11:06;98716.20;;;1.22;100.00
32492;BME280;20605;49.742;18.802;2023-01-29T09:13:32;98723.17;;;1.27;100.00
32492;BME280;20605;49.742;18.802;2023-01-29T09:16:00;98724.73;;;1.20;100.00
32492;BME280;20605;49.742;18.802;2023-01-29T09:18:26;98723.63;;;1.25;100.00
32492;BME280;20605;49.742;18.802;2023-01-29T09:20:52;98718.69;;;1.17;100.00
32492;BME280;20605;49.742;18.802;2023-01-29T09:23:18;98716.13;;;0.77;100.00
32492;BME280;20605;49.742;18.802;2023-01-29T09:25:44;98720.21;;;0.46;100.00
32492;BME280;20605;49.742;18.802;2023-01-29T09:28:11;98715.23;;;0.44;100.00
32492;BME280;20605;49.742;18.802;2023-01-29T09:30:37;98716.12;;;0.53;100.00
32492;BME280;20605;49.742;18.802;2023-01-29T09:33:04;98710.52;;;0.55;100.00
32492;BME280;20605;49.742;18.802;2023-01-29T09:35:30;98704.04;;;0.48;100.00
32492;BME280;20605;49.742;18.802;2023-01-29T09:37:56;98699.81;;;0.35;100.00
32492;BME280;20605;49.742;18.802;2023-01-29T09:40:23;98693.16;;;0.36;100.00
32492;BME280;20605;49.742;18.802;2023-01-29T09:43:05;98689.59;;;0.37;100.00
32492;BME280;20605;49.742;18.802;2023-01-29T09:45:33;98678.89;;;0.24;100.00
32492;BME280;20605;49.742;18.802;2023-01-29T09:48:01;98669.66;;;0.24;100.00
32492;BME280;20605;49.742;18.802;2023-01-29T09:50:33;98669.51;;;0.32;100.00
32492;BME280;20605;49.742;18.802;2023-01-29T09:53:05;98667.73;;;0.37;100.00
32492;BME280;20605;49.742;18.802;2023-01-29T09:55:44;98661.08;;;0.45;100.00
32492;BME280;20605;49.742;18.802;2023-01-29T09:58:18;98657.45;;;0.42;100.00
32492;BME280;20605;49.742;18.802;2023-01-29T10:11:47;98672.60;;;0.64;100.00
32492;BME280;20605;49.742;18.802;2023-01-29T10:17:15;98657.20;;;0.79;100.00
32492;BME280;20605;49.742;18.802;2023-01-29T10:25:15;98651.09;;;0.81;100.00
32492;BME280;20605;49.742;18.802;2023-01-29T10:27:47;98644.55;;;0.88;100.00
32492;BME280;20605;49.742;18.802;2023-01-29T10:32:55;98634.34;;;0.90;100.00
32492;BME280;20605;49.742;18.802;2023-01-29T10:35:38;98622.77;;;0.92;100.00
32492;BME280;20605;49.742;18.802;2023-01-29T10:40:59;98612.42;;;0.97;100.00
32492;BME280;20605;49.742;18.802;2023-01-29T11:02:18;98571.41;;;1.39;100.00
32492;BME280;20605;49.742;18.802;2023-01-29T11:04:45;98564.56;;;1.39;100.00
32492;BME280;20605;49.742;18.802;2023-01-29T11:07:12;98556.73;;;1.41;100.00
32492;BME280;20605;49.742;18.802;2023-01-29T11:10:03;98547.48;;;1.30;100.00
32492;BME280;20605;49.742;18.802;2023-01-29T11:12:33;98542.82;;;1.06;99.82
32492;BME280;20605;49.742;18.802;2023-01-29T11:17:27;98536.36;;;0.80;100.00
32492;BME280;20605;49.742;18.802;2023-01-29T11:19:54;98530.77;;;0.73;100.00
32492;BME280;20605;49.742;18.802;2023-01-29T11:22:27;98526.23;;;0.78;100.00
32492;BME280;20605;49.742;18.802;2023-01-29T11:25:15;98522.86;;;0.90;100.00
32492;BME280;20605;49.742;18.802;2023-01-29T11:27:47;98516.77;;;1.03;100.00
32492;BME280;20605;49.742;18.802;2023-01-29T11:30:22;98516.10;;;1.04;99.93
32492;BME280;20605;49.742;18.802;2023-01-29T11:32:51;98509.31;;;1.17;99.90
32492;BME280;20605;49.742;18.802;2023-01-29T11:35:22;98505.44;;;1.20;99.92
32492;BME280;20605;49.742;18.802;2023-01-29T11:37:48;98499.45;;;1.20;100.00
32492;BME280;20605;49.742;18.802;2023-01-29T11:40:33;98498.65;;;1.24;100.00
32492;BME280;20605;49.742;18.802;2023-01-29T11:45:43;98487.46;;;1.20;99.74
32492;BME280;20605;49.742;18.802;2023-01-29T11:48:15;98483.73;;;1.11;99.82
32492;BME280;20605;49.742;18.802;2023-01-29T11:50:43;98484.89;;;1.09;99.73
32492;BME280;20605;49.742;18.802;2023-01-29T11:55:59;98467.88;;;1.04;100.00
32492;BME280;20605;49.742;18.802;2023-01-29T11:58:31;98461.55;;;1.15;100.00
32492;BME280;20605;49.742;18.802;2023-01-29T12:00:59;98456.41;;;1.25;100.00
32492;BME280;20605;49.742;18.802;2023-01-29T12:06:07;98448.20;;;1.38;99.78
32492;BME280;20605;49.742;18.802;2023-01-29T12:08:39;98452.55;;;1.31;99.77
32492;BME280;20605;49.742;18.802;2023-01-29T12:11:13;98453.61;;;1.20;99.76
32492;BME280;20605;49.742;18.802;2023-01-29T12:13:41;98460.70;;;1.05;99.70
32492;BME280;20605;49.742;18.802;2023-01-29T12:16:22;98470.39;;;1.01;99.89
32492;BME280;20605;49.742;18.802;2023-01-29T12:18:55;98476.67;;;0.88;99.03
32492;BME280;20605;49.742;18.802;2023-01-29T12:24:17;98477.40;;;0.81;99.51
32492;BME280;20605;49.742;18.802;2023-01-29T12:26:57;98475.13;;;0.69;99.19
32492;BME280;20605;49.742;18.802;2023-01-29T12:35:19;98465.74;;;0.42;98.71
32492;BME280;20605;49.742;18.802;2023-01-29T12:40:32;98471.70;;;0.23;98.41
32492;BME280;20605;49.742;18.802;2023-01-29T12:43:04;98470.02;;;0.16;98.58
32492;BME280;20605;49.742;18.802;2023-01-29T12:45:36;98470.80;;;0.13;98.89
32492;BME280;20605;49.742;18.802;2023-01-29T12:48:07;98469.32;;;0.16;99.03
32492;BME280;20605;49.742;18.802;2023-01-29T12:50:36;98466.48;;;0.18;99.32
32492;BME280;20605;49.742;18.802;2023-01-29T12:56:15;98459.42;;;0.07;98.21
32492;BME280;20605;49.742;18.802;2023-01-29T12:58:50;98452.73;;;0.15;98.73
32492;BME280;20605;49.742;18.802;2023-01-29T13:01:33;98447.58;;;0.21;98.57
32492;BME280;20605;49.742;18.802;2023-01-29T13:04:30;98443.42;;;0.18;97.27
32492;BME280;20605;49.742;18.802;2023-01-29T13:09:33;98441.49;;;0.15;97.48
32492;BME280;20605;49.742;18.802;2023-01-29T13:12:06;98441.79;;;0.22;97.71
32492;BME280;20605;49.742;18.802;2023-01-29T13:14:50;98446.20;;;0.38;98.30
32492;BME280;20605;49.742;18.802;2023-01-29T13:17:38;98444.04;;;0.51;97.94
32492;BME280;20605;49.742;18.802;2023-01-29T13:20:12;98441.48;;;0.60;97.49
32492;BME280;20605;49.742;18.802;2023-01-29T13:22:42;98442.36;;;0.62;96.99
32492;BME280;20605;49.742;18.802;2023-01-29T13:25:17;98446.19;;;0.55;96.73
32492;BME280;20605;49.742;18.802;2023-01-29T13:27:44;98441.23;;;0.47;96.38
32492;BME280;20605;49.742;18.802;2023-01-29T13:30:27;98438.75;;;0.51;96.78
32492;BME280;20605;49.742;18.802;2023-01-29T13:32:54;98432.27;;;0.51;96.98
32492;BME280;20605;49.742;18.802;2023-01-29T13:35:38;98435.21;;;0.54;96.89
32492;BME280;20605;49.742;18.802;2023-01-29T13:38:19;98433.66;;;0.53;96.66
32492;BME280;20605;49.742;18.802;2023-01-29T13:40:48;98427.33;;;0.52;96.64
32492;BME280;20605;49.742;18.802;2023-01-29T13:43:22;98426.02;;;0.56;96.78
32492;BME280;20605;49.742;18.802;2023-01-29T13:45:50;98418.86;;;0.57;96.56
32492;BME280;20605;49.742;18.802;2023-01-29T13:48:24;98415.64;;;0.48;96.81
32492;BME280;20605;49.742;18.802;2023-01-29T13:50:52;98409.75;;;0.54;96.99
32492;BME280;20605;49.742;18.802;2023-01-29T13:53:39;98406.88;;;0.56;97.03
32492;BME280;20605;49.742;18.802;2023-01-29T13:58:54;98416.13;;;0.56;96.53
32492;BME280;20605;49.742;18.802;2023-01-29T14:04:31;98414.19;;;0.54;95.75
32492;BME280;20605;49.742;18.802;2023-01-29T14:06:58;98423.66;;;0.39;95.37
32492;BME280;20605;49.742;18.802;2023-01-29T14:11:59;98418.70;;;0.20;95.72
32492;BME280;20605;49.742;18.802;2023-01-29T14:17:17;98417.08;;;0.06;95.82
32492;BME280;20605;49.742;18.802;2023-01-29T14:19:52;98408.82;;;-0.06;95.67
32492;BME280;20605;49.742;18.802;2023-01-29T14:22:25;98403.17;;;-0.16;96.05
32492;BME280;20605;49.742;18.802;2023-01-29T14:24:54;98403.39;;;-0.22;95.93
32492;BME280;20605;49.742;18.802;2023-01-29T14:27:26;98397.55;;;-0.40;95.52
32492;BME280;20605;49.742;18.802;2023-01-29T14:30:07;98396.23;;;-0.61;95.96
32492;BME280;20605;49.742;18.802;2023-01-29T14:32:38;98400.77;;;-0.72;96.25
32492;BME280;20605;49.742;18.802;2023-01-29T14:35:26;98401.04;;;-0.83;96.41
32492;BME280;20605;49.742;18.802;2023-01-29T14:38:01;98400.57;;;-0.96;96.80
32492;BME280;20605;49.742;18.802;2023-01-29T14:40:29;98391.95;;;-1.08;96.67
32492;BME280;20605;49.742;18.802;2023-01-29T14:43:15;98387.66;;;-1.16;97.08
32492;BME280;20605;49.742;18.802;2023-01-29T14:45:49;98382.39;;;-1.22;97.14
32492;BME280;20605;49.742;18.802;2023-01-29T14:48:35;98380.87;;;-1.29;97.44
32492;BME280;20605;49.742;18.802;2023-01-29T14:51:06;98380.63;;;-1.33;98.00
32492;BME280;20605;49.742;18.802;2023-01-29T14:53:47;98380.30;;;-1.33;98.19
32492;BME280;20605;49.742;18.802;2023-01-29T14:56:20;98377.68;;;-1.35;98.36
32492;BME280;20605;49.742;18.802;2023-01-29T14:58:52;98382.15;;;-1.41;98.23
32492;BME280;20605;49.742;18.802;2023-01-29T15:01:34;98388.35;;;-1.51;98.33
32492;BME280;20605;49.742;18.802;2023-01-29T15:04:14;98389.79;;;-1.62;98.61
32492;BME280;20605;49.742;18.802;2023-01-29T15:06:50;98396.22;;;-1.70;98.78
32492;BME280;20605;49.742;18.802;2023-01-29T15:09:33;98396.63;;;-1.81;98.67
32492;BME280;20605;49.742;18.802;2023-01-29T15:14:38;98399.33;;;-1.93;99.53